sensor_id;sensor_type;location;lat;lon;timestamp;P1;durP1;ratioP1;P2;durP2;ratioP2
3491;SDS011;1760;52.480;13.422;2022-11-24T00:00:50;39.80;;;14.37;;
3491;SDS011;1760;52.480;13.422;2022-11-24T00:03:17;35.40;;;16.63;;
3491;SDS011;1760;52.480;13.422;2022-11-24T00:05:44;35.33;;;17.37;;
3491;SDS011;1760;52.480;13.422;2022-11-24T00:08:12;34.90;;;16.07;;
3491;SDS011;1760;52.480;13.422;2022-11-24T00:10:42;35.63;;;16.10;;
3491;SDS011;1760;52.480;13.422;2022-11-24T00:15:52;35.87;;;17.77;;
3491;SDS011;1760;52.480;13.422;2022-11-24T00:18:19;30.67;;;14.70;;
3491;SDS011;1760;52.480;13.422;2022-11-24T00:20:50;39.87;;;14.97;;
3491;SDS011;1760;52.480;13.422;2022-11-24T00:23:17;32.97;;;16.90;;
3491;SDS011;1760;52.480;13.422;2022-11-24T00:25:44;33.47;;;15.43;;
3491;SDS011;1760;52.480;13.422;2022-11-24T00:28:11;28.87;;;16.83;;
3491;SDS011;1760;52.480;13.422;2022-11-24T00:30:39;52.87;;;19.33;;
3491;SDS011;1760;52.480;13.422;2022-11-24T00:33:06;39.00;;;17.87;;
3491;SDS011;1760;52.480;13.422;2022-11-24T00:35:33;37.07;;;16.57;;
3491;SDS011;1760;52.480;13.422;2022-11-24T00:38:00;32.17;;;15.27;;
3491;SDS011;1760;52.480;13.422;2022-11-24T00:40:26;37.87;;;16.67;;
3491;SDS011;1760;52.480;13.422;2022-11-24T00:42:53;39.90;;;19.70;;
3491;SDS011;1760;52.480;13.422;2022-11-24T00:48:07;31.37;;;15.57;;
3491;SDS011;1760;52.480;13.422;2022-11-24T00:50:34;34.43;;;14.83;;
3491;SDS011;1760;52.480;13.422;2022-11-24T00:53:01;43.00;;;19.83;;
3491;SDS011;1760;52.480;13.422;2022-11-24T00:55:28;32.23;;;15.77;;
3491;SDS011;1760;52.480;13.422;2022-11-24T00:57:55;47.30;;;19.17;;
3491;SDS011;1760;52.480;13.422;2022-11-24T01:00:22;43.93;;;16.77;;
3491;SDS011;1760;52.480;13.422;2022-11-24T01:02:52;30.93;;;15.40;;
3491;SDS011;1760;52.480;13.422;2022-11-24T01:05:19;32.77;;;15.57;;
3491;SDS011;1760;52.480;13.422;2022-11-24T01:07:46;41.60;;;17.23;;
3491;SDS011;1760;52.480;13.422;2022-11-24T01:10:13;37.83;;;19.10;;
3491;SDS011;1760;52.480;13.422;2022-11-24T01:12:40;32.43;;;17.23;;
3491;SDS011;1760;52.480;13.422;2022-11-24T01:15:07;34.90;;;16.77;;
3491;SDS011;1760;52.480;13.422;2022-11-24T01:17:34;42.13;;;19.27;;
3491;SDS011;1760;52.480;13.422;2022-11-24T01:20:02;26.73;;;15.50;;
3491;SDS011;1760;52.480;13.422;2022-11-24T01:22:30;36.20;;;16.60;;
3491;SDS011;1760;52.480;13.422;2022-11-24T01:24:57;27.97;;;15.80;;
3491;SDS011;1760;52.480;13.422;2022-11-24T01:27:24;31.90;;;14.27;;
3491;SDS011;1760;52.480;13.422;2022-11-24T01:29:51;38.90;;;17.47;;
3491;SDS011;1760;52.480;13.422;2022-11-24T01:32:18;38.37;;;16.60;;
3491;SDS011;1760;52.480;13.422;2022-11-24T01:34:44;31.23;;;16.57;;
3491;SDS011;1760;52.480;13.422;2022-11-24T01:37:13;37.27;;;17.07;;
3491;SDS011;1760;52.480;13.422;2022-11-24T01:39:39;35.30;;;17.80;;
3491;SDS011;1760;52.480;13.422;2022-11-24T01:42:06;30.63;;;14.77;;
3491;SDS011;1760;52.480;13.422;2022-11-24T01:44:33;36.93;;;16.43;;
3491;SDS011;1760;52.480;13.422;2022-11-24T01:49:53;27.50;;;14.60;;
3491;SDS011;1760;52.480;13.422;2022-11-24T01:52:25;35.57;;;16.40;;
3491;SDS011;1760;52.480;13.422;2022-11-24T01:54:58;37.03;;;17.63;;
3491;SDS011;1760;52.480;13.422;2022-11-24T01:57:28;29.03;;;13.47;;
3491;SDS011;1760;52.480;13.422;2022-11-24T02:00:00;39.80;;;18.20;;
3491;SDS011;1760;52.480;13.422;2022-11-24T02:02:30;31.67;;;14.83;;
3491;SDS011;1760;52.480;13.422;2022-11-24T02:04:58;35.80;;;16.13;;
3491;SDS011;1760;52.480;13.422;2022-11-24T02:07:31;35.93;;;15.80;;
3491;SDS011;1760;52.480;13.422;2022-11-24T02:09:59;34.33;;;16.93;;
3491;SDS011;1760;52.480;13.422;2022-11-24T02:12:29;40.37;;;16.07;;
3491;SDS011;1760;52.480;13.422;2022-11-24T02:14:57;42.47;;;16.30;;
3491;SDS011;1760;52.480;13.422;2022-11-24T02:17:25;28.77;;;14.83;;
3491;SDS011;1760;52.480;13.422;2022-11-24T02:19:53;33.53;;;14.90;;
3491;SDS011;1760;52.480;13.422;2022-11-24T02:22:25;37.90;;;15.43;;
3491;SDS011;1760;52.480;13.422;2022-11-24T02:25:00;33.13;;;18.60;;
3491;SDS011;1760;52.480;13.422;2022-11-24T02:27:33;35.70;;;17.83;;
3491;SDS011;1760;52.480;13.422;2022-11-24T02:30:01;34.80;;;13.43;;
3491;SDS011;1760;52.480;13.422;2022-11-24T02:32:29;33.90;;;14.87;;
3491;SDS011;1760;52.480;13.422;2022-11-24T02:35:00;24.90;;;13.40;;
3491;SDS011;1760;52.480;13.422;2022-11-24T02:37:28;27.50;;;15.30;;
3491;SDS011;1760;52.480;13.422;2022-11-24T02:39:55;34.57;;;16.80;;
3491;SDS011;1760;52.480;13.422;2022-11-24T02:42:21;32.00;;;13.20;;
3491;SDS011;1760;52.480;13.422;2022-11-24T02:44:52;24.10;;;13.03;;
3491;SDS011;1760;52.480;13.422;2022-11-24T02:47:22;30.90;;;11.53;;
3491;SDS011;1760;52.480;13.422;2022-11-24T02:49:49;34.07;;;17.47;;
3491;SDS011;1760;52.480;13.422;2022-11-24T02:52:16;36.40;;;16.00;;
3491;SDS011;1760;52.480;13.422;2022-11-24T02:54:43;37.53;;;17.83;;
3491;SDS011;1760;52.480;13.422;2022-11-24T02:57:12;27.13;;;15.50;;
3491;SDS011;1760;52.480;13.422;2022-11-24T02:59:40;29.87;;;13.23;;
3491;SDS011;1760;52.480;13.422;2022-11-24T03:02:08;24.43;;;12.30;;
3491;SDS011;1760;52.480;13.422;2022-11-24T03:04:35;36.20;;;16.60;;
3491;SDS011;1760;52.480;13.422;2022-11-24T03:07:02;30.50;;;14.47;;
3491;SDS011;1760;52.480;13.422;2022-11-24T03:09:29;36.70;;;13.60;;
3491;SDS011;1760;52.480;13.422;2022-11-24T03:11:56;28.67;;;14.33;;
3491;SDS011;1760;52.480;13.422;2022-11-24T03:14:23;29.77;;;16.60;;
3491;SDS011;1760;52.480;13.422;2022-11-24T03:16:50;35.47;;;16.57;;
3491;SDS011;1760;52.480;13.422;2022-11-24T03:19:18;40.07;;;16.83;;
3491;SDS011;1760;52.480;13.422;2022-11-24T03:21:45;27.00;;;15.00;;
3491;SDS011;1760;52.480;13.422;2022-11-24T03:24:12;24.73;;;14.17;;
3491;SDS011;1760;52.480;13.422;2022-11-24T03:26:38;24.87;;;12.97;;
3491;SDS011;1760;52.480;13.422;2022-11-24T03:29:06;34.73;;;14.47;;
3491;SDS011;1760;52.480;13.422;2022-11-24T03:31:33;24.70;;;14.60;;
3491;SDS011;1760;52.480;13.422;2022-11-24T03:34:00;26.40;;;14.63;;
3491;SDS011;1760;52.480;13.422;2022-11-24T03:36:28;28.90;;;14.53;;
3491;SDS011;1760;52.480;13.422;2022-11-24T03:38:55;29.90;;;11.33;;
3491;SDS011;1760;52.480;13.422;2022-11-24T03:41:22;26.60;;;11.30;;
3491;SDS011;1760;52.480;13.422;2022-11-24T03:43:49;27.73;;;13.10;;
3491;SDS011;1760;52.480;13.422;2022-11-24T03:46:16;37.87;;;17.30;;
3491;SDS011;1760;52.480;13.422;2022-11-24T03:48:43;31.37;;;16.23;;
3491;SDS011;1760;52.480;13.422;2022-11-24T03:51:10;22.90;;;13.27;;
3491;SDS011;1760;52.480;13.422;2022-11-24T03:53:38;37.90;;;16.80;;
3491;SDS011;1760;52.480;13.422;2022-11-24T03:56:05;23.87;;;15.23;;
3491;SDS011;1760;52.480;13.422;2022-11-24T03:58:32;29.40;;;16.50;;
3491;SDS011;1760;52.480;13.422;2022-11-24T04:00:59;25.90;;;14.97;;
3491;SDS011;1760;52.480;13.422;2022-11-24T04:03:26;23.83;;;12.80;;
3491;SDS011;1760;52.480;13.422;2022-11-24T04:05:53;33.93;;;15.03;;
3491;SDS011;1760;52.480;13.422;2022-11-24T04:08:20;32.23;;;14.40;;
3491;SDS011;1760;52.480;13.422;2022-11-24T04:10:50;23.80;;;13.40;;
3491;SDS011;1760;52.480;13.422;2022-11-24T04:13:18;33.20;;;12.67;;
3491;SDS011;1760;52.480;13.422;2022-11-24T04:15:46;23.67;;;12.70;;
3491;SDS011;1760;52.480;13.422;2022-11-24T04:18:13;30.60;;;15.03;;
3491;SDS011;1760;52.480;13.422;2022-11-24T04:20:40;27.40;;;13.67;;
3491;SDS011;1760;52.480;13.422;2022-11-24T04:23:07;23.10;;;12.30;;
3491;SDS011;1760;52.480;13.422;2022-11-24T04:25:44;33.03;;;17.50;;
3491;SDS011;1760;52.480;13.422;2022-11-24T04:28:12;28.07;;;13.00;;
3491;SDS011;1760;52.480;13.422;2022-11-24T04:30:39;31.00;;;11.63;;
3491;SDS011;1760;52.480;13.422;2022-11-24T04:33:08;21.20;;;13.03;;
3491;SDS011;1760;52.480;13.422;2022-11-24T04:35:36;27.57;;;14.13;;
3491;SDS011;1760;52.480;13.422;2022-11-24T04:38:03;21.27;;;11.27;;
3491;SDS011;1760;52.480;13.422;2022-11-24T04:40:29;27.63;;;12.47;;
3491;SDS011;1760;52.480;13.422;2022-11-24T04:42:56;21.90;;;10.50;;
3491;SDS011;1760;52.480;13.422;2022-11-24T04:45:24;26.37;;;14.03;;
3491;SDS011;1760;52.480;13.422;2022-11-24T04:47:51;29.07;;;14.07;;
3491;SDS011;1760;52.480;13.422;2022-11-24T04:50:18;24.13;;;14.03;;
3491;SDS011;1760;52.480;13.422;2022-11-24T04:52:45;26.50;;;13.57;;
3491;SDS011;1760;52.480;13.422;2022-11-24T04:55:12;26.33;;;12.50;;
3491;SDS011;1760;52.480;13.422;2022-11-24T04:57:42;28.03;;;12.53;;
3491;SDS011;1760;52.480;13.422;2022-11-24T05:00:09;22.20;;;13.53;;
3491;SDS011;1760;52.480;13.422;2022-11-24T05:02:38;33.00;;;14.20;;
3491;SDS011;1760;52.480;13.422;2022-11-24T05:05:05;22.70;;;11.97;;
3491;SDS011;1760;52.480;13.422;2022-11-24T05:07:33;28.27;;;13.13;;
3491;SDS011;1760;52.480;13.422;2022-11-24T05:10:00;25.07;;;10.57;;
3491;SDS011;1760;52.480;13.422;2022-11-24T05:12:49;25.70;;;12.60;;
3491;SDS011;1760;52.480;13.422;2022-11-24T05:15:19;35.03;;;14.20;;
3491;SDS011;1760;52.480;13.422;2022-11-24T05:17:47;22.10;;;11.40;;
3491;SDS011;1760;52.480;13.422;2022-11-24T05:20:14;19.70;;;12.30;;
3491;SDS011;1760;52.480;13.422;2022-11-24T05:22:41;33.23;;;14.67;;
3491;SDS011;1760;52.480;13.422;2022-11-24T05:25:08;23.27;;;11.83;;
3491;SDS011;1760;52.480;13.422;2022-11-24T05:27:35;19.17;;;10.50;;
3491;SDS011;1760;52.480;13.422;2022-11-24T05:30:02;31.07;;;13.13;;
3491;SDS011;1760;52.480;13.422;2022-11-24T05:32:29;21.13;;;10.67;;
3491;SDS011;1760;52.480;13.422;2022-11-24T05:34:58;23.70;;;14.63;;
3491;SDS011;1760;52.480;13.422;2022-11-24T05:37:26;18.03;;;10.40;;
3491;SDS011;1760;52.480;13.422;2022-11-24T05:39:54;25.40;;;13.33;;
3491;SDS011;1760;52.480;13.422;2022-11-24T05:42:21;33.20;;;11.77;;
3491;SDS011;1760;52.480;13.422;2022-11-24T05:45:07;21.50;;;12.20;;
3491;SDS011;1760;52.480;13.422;2022-11-24T05:47:35;19.20;;;12.20;;
3491;SDS011;1760;52.480;13.422;2022-11-24T05:50:04;23.70;;;11.07;;
3491;SDS011;1760;52.480;13.422;2022-11-24T05:52:32;26.63;;;13.10;;
3491;SDS011;1760;52.480;13.422;2022-11-24T05:54:59;29.27;;;14.00;;
3491;SDS011;1760;52.480;13.422;2022-11-24T05:57:26;24.07;;;10.67;;
3491;SDS011;1760;52.480;13.422;2022-11-24T05:59:53;28.43;;;13.27;;
3491;SDS011;1760;52.480;13.422;2022-11-24T06:02:19;24.00;;;11.70;;
3491;SDS011;1760;52.480;13.422;2022-11-24T06:04:46;22.67;;;11.77;;
3491;SDS011;1760;52.480;13.422;2022-11-24T06:07:15;15.37;;;9.03;;
3491;SDS011;1760;52.480;13.422;2022-11-24T06:09:42;17.87;;;10.40;;
3491;SDS011;1760;52.480;13.422;2022-11-24T06:12:09;22.00;;;9.70;;
3491;SDS011;1760;52.480;13.422;2022-11-24T06:14:36;14.17;;;9.10;;
3491;SDS011;1760;52.480;13.422;2022-11-24T06:17:04;21.73;;;11.43;;
3491;SDS011;1760;52.480;13.422;2022-11-24T06:19:31;20.67;;;12.30;;
3491;SDS011;1760;52.480;13.422;2022-11-24T06:21:58;23.60;;;10.80;;
3491;SDS011;1760;52.480;13.422;2022-11-24T06:24:26;15.93;;;10.23;;
3491;SDS011;1760;52.480;13.422;2022-11-24T06:26:53;20.37;;;9.67;;
3491;SDS011;1760;52.480;13.422;2022-11-24T06:29:20;20.83;;;10.70;;
3491;SDS011;1760;52.480;13.422;2022-11-24T06:31:47;23.50;;;9.63;;
3491;SDS011;1760;52.480;13.422;2022-11-24T06:34:14;23.13;;;11.57;;
3491;SDS011;1760;52.480;13.422;2022-11-24T06:36:40;18.70;;;11.07;;
3491;SDS011;1760;52.480;13.422;2022-11-24T06:39:08;20.10;;;10.73;;
3491;SDS011;1760;52.480;13.422;2022-11-24T06:41:37;18.03;;;9.17;;
3491;SDS011;1760;52.480;13.422;2022-11-24T06:44:04;15.50;;;9.30;;
3491;SDS011;1760;52.480;13.422;2022-11-24T06:46:31;17.20;;;8.87;;
3491;SDS011;1760;52.480;13.422;2022-11-24T06:48:58;16.77;;;9.97;;
3491;SDS011;1760;52.480;13.422;2022-11-24T06:51:25;23.00;;;8.90;;
3491;SDS011;1760;52.480;13.422;2022-11-24T06:53:52;17.83;;;9.10;;
3491;SDS011;1760;52.480;13.422;2022-11-24T06:56:19;21.97;;;11.30;;
3491;SDS011;1760;52.480;13.422;2022-11-24T06:58:48;19.83;;;10.47;;
3491;SDS011;1760;52.480;13.422;2022-11-24T07:01:17;20.23;;;10.90;;
3491;SDS011;1760;52.480;13.422;2022-11-24T07:03:45;18.07;;;11.20;;
3491;SDS011;1760;52.480;13.422;2022-11-24T07:06:13;27.17;;;10.70;;
3491;SDS011;1760;52.480;13.422;2022-11-24T07:08:40;23.63;;;9.27;;
3491;SDS011;1760;52.480;13.422;2022-11-24T07:11:08;18.30;;;11.80;;
3491;SDS011;1760;52.480;13.422;2022-11-24T07:13:36;29.10;;;11.53;;
3491;SDS011;1760;52.480;13.422;2022-11-24T07:16:10;20.43;;;9.50;;
3491;SDS011;1760;52.480;13.422;2022-11-24T07:18:38;23.57;;;13.07;;
3491;SDS011;1760;52.480;13.422;2022-11-24T07:21:05;28.60;;;12.83;;
3491;SDS011;1760;52.480;13.422;2022-11-24T07:23:32;20.90;;;10.90;;
3491;SDS011;1760;52.480;13.422;2022-11-24T07:26:00;25.70;;;13.67;;
3491;SDS011;1760;52.480;13.422;2022-11-24T07:28:28;22.17;;;12.70;;
3491;SDS011;1760;52.480;13.422;2022-11-24T07:30:55;28.63;;;13.50;;
3491;SDS011;1760;52.480;13.422;2022-11-24T07:33:24;19.10;;;11.90;;
3491;SDS011;1760;52.480;13.422;2022-11-24T07:35:51;18.53;;;11.80;;
3491;SDS011;1760;52.480;13.422;2022-11-24T07:38:18;21.00;;;11.63;;
3491;SDS011;1760;52.480;13.422;2022-11-24T07:40:45;24.00;;;10.90;;
3491;SDS011;1760;52.480;13.422;2022-11-24T07:43:12;27.40;;;12.90;;
3491;SDS011;1760;52.480;13.422;2022-11-24T07:45:39;26.17;;;10.00;;
3491;SDS011;1760;52.480;13.422;2022-11-24T07:48:06;29.97;;;12.20;;
3491;SDS011;1760;52.480;13.422;2022-11-24T07:50:35;20.27;;;11.67;;
3491;SDS011;1760;52.480;13.422;2022-11-24T07:53:02;22.87;;;13.10;;
3491;SDS011;1760;52.480;13.422;2022-11-24T07:55:29;27.50;;;14.60;;
3491;SDS011;1760;52.480;13.422;2022-11-24T07:57:57;21.73;;;12.90;;
3491;SDS011;1760;52.480;13.422;2022-11-24T08:00:25;28.70;;;13.40;;
3491;SDS011;1760;52.480;13.422;2022-11-24T08:02:52;23.23;;;10.90;;
3491;SDS011;1760;52.480;13.422;2022-11-24T08:05:19;24.60;;;11.50;;
3491;SDS011;1760;52.480;13.422;2022-11-24T08:07:48;23.30;;;9.37;;
3491;SDS011;1760;52.480;13.422;2022-11-24T08:10:15;20.53;;;12.27;;
3491;SDS011;1760;52.480;13.422;2022-11-24T08:12:42;16.17;;;8.70;;
3491;SDS011;1760;52.480;13.422;2022-11-24T08:15:09;25.53;;;10.67;;
3491;SDS011;1760;52.480;13.422;2022-11-24T08:17:37;25.13;;;10.80;;
3491;SDS011;1760;52.480;13.422;2022-11-24T08:20:05;23.73;;;10.03;;
3491;SDS011;1760;52.480;13.422;2022-11-24T08:22:33;21.70;;;11.10;;
3491;SDS011;1760;52.480;13.422;2022-11-24T08:25:02;20.87;;;10.57;;
3491;SDS011;1760;52.480;13.422;2022-11-24T08:27:29;26.50;;;10.70;;
3491;SDS011;1760;52.480;13.422;2022-11-24T08:29:56;24.90;;;12.63;;
3491;SDS011;1760;52.480;13.422;2022-11-24T08:32:23;23.40;;;11.37;;
3491;SDS011;1760;52.480;13.422;2022-11-24T08:34:50;29.03;;;10.13;;
3491;SDS011;1760;52.480;13.422;2022-11-24T08:37:17;25.83;;;10.07;;
3491;SDS011;1760;52.480;13.422;2022-11-24T08:39:44;19.80;;;9.33;;
3491;SDS011;1760;52.480;13.422;2022-11-24T08:42:14;32.00;;;12.90;;
3491;SDS011;1760;52.480;13.422;2022-11-24T08:44:41;19.60;;;9.80;;
3491;SDS011;1760;52.480;13.422;2022-11-24T08:47:09;21.20;;;11.37;;
3491;SDS011;1760;52.480;13.422;2022-11-24T08:49:36;23.83;;;13.27;;
3491;SDS011;1760;52.480;13.422;2022-11-24T08:52:03;25.10;;;14.00;;
3491;SDS011;1760;52.480;13.422;2022-11-24T08:54:30;24.50;;;12.47;;
3491;SDS011;1760;52.480;13.422;2022-11-24T08:56:57;19.23;;;9.17;;
3491;SDS011;1760;52.480;13.422;2022-11-24T08:59:26;36.87;;;14.20;;
3491;SDS011;1760;52.480;13.422;2022-11-24T09:01:53;18.37;;;12.00;;
3491;SDS011;1760;52.480;13.422;2022-11-24T09:04:20;23.70;;;11.10;;
3491;SDS011;1760;52.480;13.422;2022-11-24T09:06:47;31.43;;;13.70;;
3491;SDS011;1760;52.480;13.422;2022-11-24T09:09:14;27.60;;;12.70;;
3491;SDS011;1760;52.480;13.422;2022-11-24T09:11:41;24.63;;;13.63;;
3491;SDS011;1760;52.480;13.422;2022-11-24T09:14:08;29.10;;;11.80;;
3491;SDS011;1760;52.480;13.422;2022-11-24T09:16:37;29.07;;;13.73;;
3491;SDS011;1760;52.480;13.422;2022-11-24T09:19:04;26.53;;;13.10;;
3491;SDS011;1760;52.480;13.422;2022-11-24T09:21:33;21.53;;;12.47;;
3491;SDS011;1760;52.480;13.422;2022-11-24T09:24:01;22.20;;;11.40;;
3491;SDS011;1760;52.480;13.422;2022-11-24T09:26:30;21.00;;;12.20;;
3491;SDS011;1760;52.480;13.422;2022-11-24T09:28:58;24.40;;;12.87;;
3491;SDS011;1760;52.480;13.422;2022-11-24T09:31:27;18.77;;;10.80;;
3491;SDS011;1760;52.480;13.422;2022-11-24T09:33:59;26.80;;;12.50;;
3491;SDS011;1760;52.480;13.422;2022-11-24T09:36:27;22.33;;;12.23;;
3491;SDS011;1760;52.480;13.422;2022-11-24T09:38:55;27.50;;;12.67;;
3491;SDS011;1760;52.480;13.422;2022-11-24T09:41:31;26.30;;;13.20;;
3491;SDS011;1760;52.480;13.422;2022-11-24T09:44:07;29.37;;;14.50;;
3491;SDS011;1760;52.480;13.422;2022-11-24T09:46:41;20.60;;;12.23;;
3491;SDS011;1760;52.480;13.422;2022-11-24T09:49:21;17.67;;;12.27;;
3491;SDS011;1760;52.480;13.422;2022-11-24T09:51:55;29.97;;;14.40;;
3491;SDS011;1760;52.480;13.422;2022-11-24T09:54:24;17.93;;;10.83;;
3491;SDS011;1760;52.480;13.422;2022-11-24T09:56:54;15.43;;;10.20;;
3491;SDS011;1760;52.480;13.422;2022-11-24T09:59:24;36.10;;;14.43;;
3491;SDS011;1760;52.480;13.422;2022-11-24T10:01:53;31.97;;;13.37;;
3491;SDS011;1760;52.480;13.422;2022-11-24T10:04:24;25.70;;;13.13;;
3491;SDS011;1760;52.480;13.422;2022-11-24T10:06:55;22.73;;;10.97;;
3491;SDS011;1760;52.480;13.422;2022-11-24T10:12:20;22.27;;;13.20;;
3491;SDS011;1760;52.480;13.422;2022-11-24T10:15:15;26.27;;;14.40;;
3491;SDS011;1760;52.480;13.422;2022-11-24T10:21:06;22.37;;;11.10;;
3491;SDS011;1760;52.480;13.422;2022-11-24T10:23:52;26.63;;;11.70;;
3491;SDS011;1760;52.480;13.422;2022-11-24T10:26:31;22.77;;;12.50;;
3491;SDS011;1760;52.480;13.422;2022-11-24T10:29:05;19.60;;;11.23;;
3491;SDS011;1760;52.480;13.422;2022-11-24T10:31:41;20.27;;;11.97;;
3491;SDS011;1760;52.480;13.422;2022-11-24T10:34:11;32.70;;;12.83;;
3491;SDS011;1760;52.480;13.422;2022-11-24T10:36:44;23.43;;;12.60;;
3491;SDS011;1760;52.480;13.422;2022-11-24T10:39:17;25.47;;;13.77;;
3491;SDS011;1760;52.480;13.422;2022-11-24T10:41:49;24.60;;;14.27;;
3491;SDS011;1760;52.480;13.422;2022-11-24T10:44:22;26.30;;;13.43;;
3491;SDS011;1760;52.480;13.422;2022-11-24T10:46:49;28.23;;;13.80;;
3491;SDS011;1760;52.480;13.422;2022-11-24T10:49:17;26.60;;;12.50;;
3491;SDS011;1760;52.480;13.422;2022-11-24T10:52:01;25.13;;;12.93;;
3491;SDS011;1760;52.480;13.422;2022-11-24T10:54:32;25.97;;;12.67;;
3491;SDS011;1760;52.480;13.422;2022-11-24T10:57:00;26.00;;;13.63;;
3491;SDS011;1760;52.480;13.422;2022-11-24T10:59:31;25.73;;;12.53;;
3491;SDS011;1760;52.480;13.422;2022-11-24T11:02:01;26.53;;;13.17;;
3491;SDS011;1760;52.480;13.422;2022-11-24T11:04:28;31.87;;;13.37;;
3491;SDS011;1760;52.480;13.422;2022-11-24T11:07:08;21.67;;;12.30;;
3491;SDS011;1760;52.480;13.422;2022-11-24T11:09:42;22.60;;;12.17;;
3491;SDS011;1760;52.480;13.422;2022-11-24T11:12:10;23.57;;;13.67;;
3491;SDS011;1760;52.480;13.422;2022-11-24T11:14:44;23.23;;;13.00;;
3491;SDS011;1760;52.480;13.422;2022-11-24T11:17:29;19.30;;;10.97;;
3491;SDS011;1760;52.480;13.422;2022-11-24T11:20:03;28.70;;;14.13;;
3491;SDS011;1760;52.480;13.422;2022-11-24T11:22:34;21.60;;;12.63;;
3491;SDS011;1760;52.480;13.422;2022-11-24T11:25:03;22.80;;;12.80;;
3491;SDS011;1760;52.480;13.422;2022-11-24T11:27:32;24.30;;;12.80;;
3491;SDS011;1760;52.480;13.422;2022-11-24T11:30:11;21.37;;;12.30;;
3491;SDS011;1760;52.480;13.422;2022-11-24T11:32:49;25.00;;;13.87;;
3491;SDS011;1760;52.480;13.422;2022-11-24T11:35:18;24.23;;;13.23;;
3491;SDS011;1760;52.480;13.422;2022-11-24T11:37:47;23.13;;;11.90;;
3491;SDS011;1760;52.480;13.422;2022-11-24T11:40:16;28.23;;;14.50;;
3491;SDS011;1760;52.480;13.422;2022-11-24T11:42:49;25.10;;;14.33;;
3491;SDS011;1760;52.480;13.422;2022-11-24T11:45:22;22.73;;;12.77;;
3491;SDS011;1760;52.480;13.422;2022-11-24T11:47:54;26.93;;;14.20;;
3491;SDS011;1760;52.480;13.422;2022-11-24T11:50:24;29.33;;;12.70;;
3491;SDS011;1760;52.480;13.422;2022-11-24T11:53:06;20.90;;;13.03;;
3491;SDS011;1760;52.480;13.422;2022-11-24T11:55:42;20.13;;;14.07;;
3491;SDS011;1760;52.480;13.422;2022-11-24T11:58:29;25.10;;;13.47;;
3491;SDS011;1760;52.480;13.422;2022-11-24T12:01:21;22.27;;;12.13;;
3491;SDS011;1760;52.480;13.422;2022-11-24T12:04:10;27.97;;;15.57;;
3491;SDS011;1760;52.480;13.422;2022-11-24T12:06:49;28.10;;;14.77;;
3491;SDS011;1760;52.480;13.422;2022-11-24T12:09:41;26.17;;;15.50;;
3491;SDS011;1760;52.480;13.422;2022-11-24T12:15:08;19.60;;;12.57;;
3491;SDS011;1760;52.480;13.422;2022-11-24T12:17:45;19.70;;;11.27;;
3491;SDS011;1760;52.480;13.422;2022-11-24T12:20:22;16.80;;;10.10;;
3491;SDS011;1760;52.480;13.422;2022-11-24T12:22:58;19.83;;;11.93;;
3491;SDS011;1760;52.480;13.422;2022-11-24T12:25:36;22.07;;;11.20;;
3491;SDS011;1760;52.480;13.422;2022-11-24T12:28:11;20.20;;;11.57;;
3491;SDS011;1760;52.480;13.422;2022-11-24T12:30:49;26.13;;;14.57;;
3491;SDS011;1760;52.480;13.422;2022-11-24T12:33:28;22.83;;;12.07;;
3491;SDS011;1760;52.480;13.422;2022-11-24T12:36:11;18.73;;;11.73;;
3491;SDS011;1760;52.480;13.422;2022-11-24T12:38:50;20.90;;;12.27;;
3491;SDS011;1760;52.480;13.422;2022-11-24T12:41:25;15.67;;;11.60;;
3491;SDS011;1760;52.480;13.422;2022-11-24T12:44:07;21.77;;;12.50;;
3491;SDS011;1760;52.480;13.422;2022-11-24T12:46:53;27.93;;;15.77;;
3491;SDS011;1760;52.480;13.422;2022-11-24T12:49:28;24.80;;;11.83;;
3491;SDS011;1760;52.480;13.422;2022-11-24T12:52:05;27.97;;;14.40;;
3491;SDS011;1760;52.480;13.422;2022-11-24T12:54:41;23.97;;;14.10;;
3491;SDS011;1760;52.480;13.422;2022-11-24T12:57:12;19.77;;;12.37;;
3491;SDS011;1760;52.480;13.422;2022-11-24T12:59:45;24.90;;;13.33;;
3491;SDS011;1760;52.480;13.422;2022-11-24T13:02:22;24.33;;;13.07;;
3491;SDS011;1760;52.480;13.422;2022-11-24T13:05:01;21.00;;;13.83;;
3491;SDS011;1760;52.480;13.422;2022-11-24T13:07:41;20.87;;;14.03;;
3491;SDS011;1760;52.480;13.422;2022-11-24T13:10:30;20.37;;;11.20;;
3491;SDS011;1760;52.480;13.422;2022-11-24T13:13:00;19.50;;;11.63;;
3491;SDS011;1760;52.480;13.422;2022-11-24T13:15:29;22.43;;;11.80;;
3491;SDS011;1760;52.480;13.422;2022-11-24T13:17:57;20.37;;;12.77;;
3491;SDS011;1760;52.480;13.422;2022-11-24T13:20:28;25.03;;;15.13;;
3491;SDS011;1760;52.480;13.422;2022-11-24T13:22:57;23.90;;;13.40;;
3491;SDS011;1760;52.480;13.422;2022-11-24T13:25:27;26.07;;;14.27;;
3491;SDS011;1760;52.480;13.422;2022-11-24T13:27:55;23.23;;;12.80;;
3491;SDS011;1760;52.480;13.422;2022-11-24T13:33:37;21.87;;;10.93;;
3491;SDS011;1760;52.480;13.422;2022-11-24T13:38:57;26.53;;;11.90;;
3491;SDS011;1760;52.480;13.422;2022-11-24T13:44:47;22.33;;;13.00;;
3491;SDS011;1760;52.480;13.422;2022-11-24T13:51:06;20.60;;;12.80;;
3491;SDS011;1760;52.480;13.422;2022-11-24T13:53:30;21.40;;;12.40;;
3491;SDS011;1760;52.480;13.422;2022-11-24T13:56:02;28.40;;;16.77;;
3491;SDS011;1760;52.480;13.422;2022-11-24T13:58:35;29.57;;;15.40;;
3491;SDS011;1760;52.480;13.422;2022-11-24T14:01:10;28.30;;;15.80;;
3491;SDS011;1760;52.480;13.422;2022-11-24T14:03:41;23.47;;;14.20;;
3491;SDS011;1760;52.480;13.422;2022-11-24T14:06:19;28.40;;;12.70;;
3491;SDS011;1760;52.480;13.422;2022-11-24T14:08:53;25.97;;;12.90;;
3491;SDS011;1760;52.480;13.422;2022-11-24T14:11:21;37.80;;;16.50;;
3491;SDS011;1760;52.480;13.422;2022-11-24T14:13:50;24.20;;;14.50;;
3491;SDS011;1760;52.480;13.422;2022-11-24T14:16:18;26.53;;;13.40;;
3491;SDS011;1760;52.480;13.422;2022-11-24T14:18:46;29.70;;;13.90;;
3491;SDS011;1760;52.480;13.422;2022-11-24T14:21:19;31.43;;;13.70;;
3491;SDS011;1760;52.480;13.422;2022-11-24T14:23:51;20.60;;;12.50;;
3491;SDS011;1760;52.480;13.422;2022-11-24T14:26:21;28.03;;;14.40;;
3491;SDS011;1760;52.480;13.422;2022-11-24T14:28:51;27.23;;;12.73;;
3491;SDS011;1760;52.480;13.422;2022-11-24T14:31:21;21.10;;;11.87;;
3491;SDS011;1760;52.480;13.422;2022-11-24T14:33:49;17.43;;;11.63;;
3491;SDS011;1760;52.480;13.422;2022-11-24T14:36:34;21.53;;;12.63;;
3491;SDS011;1760;52.480;13.422;2022-11-24T14:39:01;19.60;;;13.10;;
3491;SDS011;1760;52.480;13.422;2022-11-24T14:41:29;23.33;;;12.50;;
3491;SDS011;1760;52.480;13.422;2022-11-24T14:44:11;23.60;;;13.23;;
3491;SDS011;1760;52.480;13.422;2022-11-24T14:46:42;21.50;;;13.37;;
3491;SDS011;1760;52.480;13.422;2022-11-24T14:49:09;23.63;;;13.70;;
3491;SDS011;1760;52.480;13.422;2022-11-24T14:51:44;22.00;;;12.87;;
3491;SDS011;1760;52.480;13.422;2022-11-24T14:54:17;33.30;;;14.87;;
3491;SDS011;1760;52.480;13.422;2022-11-24T14:56:54;34.27;;;18.13;;
3491;SDS011;1760;52.480;13.422;2022-11-24T14:59:25;27.27;;;14.27;;
3491;SDS011;1760;52.480;13.422;2022-11-24T15:01:53;28.90;;;17.20;;
3491;SDS011;1760;52.480;13.422;2022-11-24T15:04:21;27.17;;;15.00;;
3491;SDS011;1760;52.480;13.422;2022-11-24T15:07:04;30.10;;;17.10;;
3491;SDS011;1760;52.480;13.422;2022-11-24T15:09:46;25.20;;;14.43;;
3491;SDS011;1760;52.480;13.422;2022-11-24T15:12:19;26.83;;;15.53;;
3491;SDS011;1760;52.480;13.422;2022-11-24T15:14:52;26.80;;;13.23;;
3491;SDS011;1760;52.480;13.422;2022-11-24T15:17:22;30.57;;;16.30;;
3491;SDS011;1760;52.480;13.422;2022-11-24T15:19:52;34.20;;;14.90;;
3491;SDS011;1760;52.480;13.422;2022-11-24T15:22:27;25.77;;;14.07;;